createdAt,value
2018-12-01T00:01:57.580Z,4.00
2018-12-01T00:04:28.374Z,3.70
2018-12-01T00:07:17.796Z,3.80
2018-12-01T00:09:48.449Z,3.67
2018-12-01T00:12:19.178Z,3.80
2018-12-01T00:14:50.747Z,4.30
2018-12-01T00:17:21.525Z,3.92
2018-12-01T00:19:52.258Z,4.45
2018-12-01T00:22:23.028Z,4.67
2018-12-01T00:24:53.757Z,4.42
2018-12-01T00:27:31.143Z,5.10
2018-12-01T00:30:01.793Z,4.83
2018-12-01T00:32:32.480Z,16.55
2018-12-01T00:35:04.227Z,6.72
2018-12-01T00:37:34.939Z,5.17
2018-12-01T00:40:07.429Z,3.52
2018-12-01T00:42:38.137Z,4.75
2018-12-01T00:45:11.091Z,4.65
2018-12-01T00:47:41.920Z,6.67
2018-12-01T00:50:15.491Z,4.78
2018-12-01T00:52:46.603Z,8.10
2018-12-01T00:55:18.146Z,5.13
2018-12-01T00:57:49.109Z,4.35
2018-12-01T01:00:21.505Z,3.70
2018-12-01T01:02:56.974Z,7.83
2018-12-01T01:05:29.529Z,6.33
2018-12-01T01:08:01.060Z,3.70
2018-12-01T01:10:34.681Z,3.17
2018-12-01T01:13:05.077Z,6.47
2018-12-01T01:15:35.775Z,8.75
2018-12-01T01:18:06.727Z,12.13
2018-12-01T01:20:37.516Z,4.80
2018-12-01T01:23:08.562Z,3.50
2018-12-01T01:25:39.286Z,3.47
2018-12-01T01:28:10.023Z,3.40
2018-12-01T01:30:40.761Z,3.42
2018-12-01T01:33:21.914Z,3.33
2018-12-01T01:35:52.564Z,3.85
2018-12-01T01:38:23.250Z,3.35
2018-12-01T01:40:58.749Z,3.52
2018-12-01T01:43:29.390Z,3.60
2018-12-01T01:46:00.038Z,3.67
2018-12-01T01:48:30.985Z,3.83
2018-12-01T01:51:01.670Z,4.00
2018-12-01T01:53:32.366Z,4.08
2018-12-01T01:56:03.185Z,3.98
2018-12-01T01:58:33.806Z,4.03
2018-12-01T02:01:04.534Z,4.40
2018-12-01T02:03:35.328Z,4.33
2018-12-01T02:06:06.043Z,4.17
2018-12-01T02:08:36.639Z,4.33
2018-12-01T02:11:07.779Z,4.37
2018-12-01T02:13:38.581Z,4.50
2018-12-01T02:16:09.399Z,4.50
2018-12-01T02:18:40.262Z,5.30
2018-12-01T02:21:11.255Z,5.15
2018-12-01T02:23:41.859Z,6.10
2018-12-01T02:26:12.687Z,5.47
2018-12-01T02:28:43.261Z,6.55
2018-12-01T02:31:13.871Z,5.92
2018-12-01T02:33:45.370Z,6.30
2018-12-01T02:36:16.204Z,6.28
2018-12-01T02:38:47.059Z,6.12
2018-12-01T02:41:17.809Z,5.85
2018-12-01T02:43:57.822Z,8.75
2018-12-01T02:46:39.040Z,14.87
2018-12-01T02:49:09.994Z,17.17
2018-12-01T02:51:40.685Z,11.95
2018-12-01T02:54:11.545Z,12.78
2018-12-01T02:56:42.528Z,7.97
2018-12-01T02:59:13.081Z,6.47
2018-12-01T03:01:43.769Z,8.87
2018-12-01T03:04:14.419Z,8.50
2018-12-01T03:06:45.279Z,14.75
2018-12-01T03:09:16.089Z,15.08
2018-12-01T03:11:46.931Z,8.23
2018-12-01T03:14:17.651Z,7.03
2018-12-01T03:16:48.566Z,7.85
2018-12-01T03:19:19.829Z,7.62
2018-12-01T03:21:50.537Z,8.55
2018-12-01T03:24:21.224Z,8.95
2018-12-01T03:26:52.053Z,8.03
2018-12-01T03:29:22.782Z,8.95
2018-12-01T03:31:53.453Z,10.32
2018-12-01T03:34:24.157Z,11.25
2018-12-01T03:36:54.935Z,12.23
2018-12-01T03:39:25.642Z,15.30
2018-12-01T03:41:56.556Z,15.40
2018-12-01T03:44:27.145Z,12.43
2018-12-01T03:46:58.050Z,9.10
2018-12-01T03:49:28.731Z,9.00
2018-12-01T03:51:59.577Z,7.75
2018-12-01T03:54:30.147Z,6.28
2018-12-01T03:57:00.800Z,7.10
2018-12-01T03:59:31.431Z,6.05
2018-12-01T04:02:02.227Z,6.17
2018-12-01T04:04:32.880Z,6.92
2018-12-01T04:07:03.661Z,6.87
2018-12-01T04:09:34.285Z,6.60
2018-12-01T04:12:04.964Z,6.40
2018-12-01T04:14:35.629Z,5.90
2018-12-01T04:17:06.401Z,5.35
2018-12-01T04:19:37.045Z,5.30
2018-12-01T04:22:08.117Z,7.40
2018-12-01T04:24:39.049Z,7.12
2018-12-01T04:27:10.184Z,5.58
2018-12-01T04:29:40.950Z,5.70
2018-12-01T04:32:12.186Z,5.17
2018-12-01T04:34:42.987Z,6.00
2018-12-01T04:37:13.866Z,5.60
2018-12-01T04:39:44.670Z,5.20
2018-12-01T04:42:15.565Z,6.62
2018-12-01T04:44:46.171Z,6.67
2018-12-01T04:47:16.806Z,9.43
2018-12-01T04:49:47.649Z,11.28
2018-12-01T04:52:18.504Z,24.75
2018-12-01T04:54:49.384Z,16.35
2018-12-01T04:57:20.173Z,11.73
2018-12-01T04:59:50.880Z,9.70
2018-12-01T05:02:21.691Z,11.12
2018-12-01T05:04:52.446Z,11.08
2018-12-01T05:07:23.306Z,12.93
2018-12-01T05:09:54.439Z,11.18
2018-12-01T05:12:25.274Z,9.40
2018-12-01T05:14:56.048Z,7.80
2018-12-01T05:17:26.724Z,9.63
2018-12-01T05:19:57.445Z,9.78
2018-12-01T05:22:28.120Z,13.73
2018-12-01T05:24:59.264Z,12.82
2018-12-01T05:27:30.050Z,19.52
2018-12-01T05:30:00.837Z,10.60
2018-12-01T05:32:31.716Z,10.75
2018-12-01T05:35:02.558Z,8.73
2018-12-01T05:37:33.288Z,7.47
2018-12-01T05:40:04.270Z,8.58
2018-12-01T05:42:35.056Z,9.83
2018-12-01T05:45:07.001Z,11.35
2018-12-01T05:47:37.692Z,16.15
2018-12-01T05:50:09.440Z,15.95
2018-12-01T05:52:40.148Z,19.37
2018-12-01T05:55:13.261Z,13.70
2018-12-01T05:57:44.121Z,13.22
2018-12-01T06:00:16.514Z,21.60
2018-12-01T06:02:47.400Z,19.37
2018-12-01T06:05:18.288Z,14.77
2018-12-01T06:07:49.401Z,12.20
2018-12-01T06:10:22.960Z,8.78
2018-12-01T06:12:54.702Z,7.80
2018-12-01T06:15:25.427Z,10.23
2018-12-01T06:17:56.213Z,16.17
2018-12-01T06:20:30.282Z,13.53
2018-12-01T06:23:01.411Z,9.23
2018-12-01T06:25:31.928Z,7.95
2018-12-01T06:28:02.510Z,10.80
2018-12-01T06:30:33.013Z,14.87
2018-12-01T06:33:03.481Z,11.47
2018-12-01T06:35:34.225Z,11.67
2018-12-01T06:38:04.967Z,8.77
2018-12-01T06:40:35.495Z,10.03
2018-12-01T06:43:06.478Z,13.77
2018-12-01T06:45:36.988Z,11.13
2018-12-01T06:48:07.805Z,10.03
2018-12-01T06:50:38.305Z,7.97
2018-12-01T06:53:09.277Z,6.60
2018-12-01T06:55:39.744Z,6.77
2018-12-01T06:58:10.388Z,6.80
2018-12-01T07:00:40.877Z,11.77
2018-12-01T07:03:14.764Z,11.37
2018-12-01T07:05:46.898Z,9.80
2018-12-01T07:08:18.206Z,13.40
2018-12-01T07:10:48.727Z,7.33
2018-12-01T07:13:19.945Z,6.80
2018-12-01T07:15:50.601Z,7.37
2018-12-01T07:18:31.764Z,6.10
2018-12-01T07:21:02.429Z,7.23
2018-12-01T07:23:34.025Z,11.40
2018-12-01T07:26:04.725Z,16.43
2018-12-01T07:28:36.087Z,12.03
2018-12-01T07:31:06.634Z,16.60
2018-12-01T07:33:37.633Z,19.73
2018-12-01T07:36:08.322Z,21.20
2018-12-01T07:38:39.280Z,25.60
2018-12-01T07:41:10.363Z,21.33
2018-12-01T07:43:40.797Z,14.37
2018-12-01T07:46:11.508Z,13.70
2018-12-01T07:48:43.471Z,11.27
2018-12-01T07:51:14.101Z,9.07
2018-12-01T07:53:47.707Z,11.93
2018-12-01T07:56:18.289Z,9.60
2018-12-01T07:58:49.209Z,10.20
2018-12-01T08:01:19.803Z,11.10
2018-12-01T08:03:50.431Z,9.87
2018-12-01T08:06:21.180Z,9.60
2018-12-01T08:08:52.119Z,11.97
2018-12-01T08:11:25.775Z,9.20
2018-12-01T08:13:56.297Z,9.87
2018-12-01T08:16:26.844Z,8.33
2018-12-01T08:18:57.417Z,8.53
2018-12-01T08:21:27.971Z,6.87
2018-12-01T08:23:58.692Z,10.40
2018-12-01T08:26:29.578Z,9.70
2018-12-01T08:29:00.471Z,10.23
2018-12-01T08:31:31.038Z,10.00
2018-12-01T08:34:01.630Z,10.50
2018-12-01T08:36:32.259Z,7.67
2018-12-01T08:39:02.865Z,7.83
2018-12-01T08:41:33.705Z,6.07
2018-12-01T08:44:13.250Z,7.73
2018-12-01T08:46:44.222Z,9.30
2018-12-01T08:49:15.004Z,17.33
2018-12-01T08:51:45.612Z,11.90
2018-12-01T08:54:16.227Z,10.97
2018-12-01T08:56:47.392Z,10.00
2018-12-01T08:59:17.904Z,12.57
2018-12-01T09:01:48.538Z,15.20
2018-12-01T09:04:19.389Z,12.83
2018-12-01T09:06:49.942Z,12.10
2018-12-01T09:09:20.478Z,10.50
2018-12-01T09:11:51.058Z,11.00
2018-12-01T09:14:21.665Z,26.33
2018-12-01T09:16:52.154Z,21.07
2018-12-01T09:19:22.689Z,16.97
2018-12-01T09:21:53.150Z,13.17
2018-12-01T09:24:23.818Z,22.83
2018-12-01T09:26:54.362Z,14.60
2018-12-01T09:29:25.092Z,11.60
2018-12-01T09:31:55.814Z,13.93
2018-12-01T09:34:26.520Z,12.20
2018-12-01T09:36:57.173Z,10.67
2018-12-01T09:39:27.747Z,9.27
2018-12-01T09:41:58.307Z,12.40
2018-12-01T09:44:29.205Z,13.53
2018-12-01T09:46:59.689Z,9.23
2018-12-01T09:49:30.500Z,14.17
2018-12-01T09:52:01.143Z,14.70
2018-12-01T09:54:31.706Z,12.30
2018-12-01T09:57:02.279Z,12.17
2018-12-01T09:59:33.346Z,13.10
2018-12-01T10:02:03.999Z,11.80
2018-12-01T10:04:34.883Z,11.47
2018-12-01T10:07:05.560Z,15.03
2018-12-01T10:09:36.432Z,10.67
2018-12-01T10:12:07.590Z,10.83
2018-12-01T10:14:38.351Z,11.43
2018-12-01T10:17:08.938Z,35.87
2018-12-01T10:19:42.813Z,21.73
2018-12-01T10:22:13.384Z,10.80
2018-12-01T10:24:44.050Z,12.77
2018-12-01T10:27:14.930Z,10.87
2018-12-01T10:29:45.652Z,18.87
2018-12-01T10:32:16.200Z,23.60
2018-12-01T10:34:46.779Z,11.57
2018-12-01T10:37:19.375Z,10.80
2018-12-01T10:39:49.924Z,10.57
2018-12-01T10:42:20.532Z,12.37
2018-12-01T10:44:51.093Z,11.43
2018-12-01T10:47:21.728Z,12.47
2018-12-01T10:49:53.045Z,26.93
2018-12-01T10:52:23.603Z,12.57
2018-12-01T10:54:54.481Z,17.10
2018-12-01T10:57:37.524Z,12.73
2018-12-01T11:00:18.396Z,12.27
2018-12-01T11:02:55.729Z,9.83
2018-12-01T11:05:25.844Z,9.33
2018-12-01T11:07:56.731Z,10.00
2018-12-01T11:10:27.461Z,9.50
2018-12-01T11:12:58.328Z,8.97
2018-12-01T11:15:29.556Z,7.70
2018-12-01T11:18:00.402Z,10.60
2018-12-01T11:20:31.054Z,20.00
2018-12-01T11:23:01.914Z,18.00
2018-12-01T11:25:33.026Z,12.27
2018-12-01T11:28:03.594Z,12.60
2018-12-01T11:30:34.451Z,10.37
2018-12-01T11:33:05.245Z,15.27
2018-12-01T11:35:36.166Z,15.23
2018-12-01T11:38:07.413Z,24.20
2018-12-01T11:40:38.128Z,19.17
2018-12-01T11:43:09.743Z,12.63
2018-12-01T11:45:40.388Z,15.57
2018-12-01T11:48:11.548Z,27.17
2018-12-01T11:50:42.529Z,18.73
2018-12-01T11:53:13.123Z,18.83
2018-12-01T11:55:43.743Z,18.70
2018-12-01T11:58:14.496Z,15.30
2018-12-01T12:00:45.319Z,14.87
2018-12-01T12:03:16.177Z,20.50
2018-12-01T12:05:46.987Z,10.43
2018-12-01T12:08:20.314Z,22.93
2018-12-01T12:10:50.942Z,21.40
2018-12-01T12:13:22.437Z,24.97
2018-12-01T12:15:53.774Z,17.73
2018-12-01T12:18:24.403Z,18.90
2018-12-01T12:20:55.068Z,13.60
2018-12-01T12:23:25.672Z,10.90
2018-12-01T12:25:56.495Z,13.53
2018-12-01T12:28:27.231Z,17.53
2018-12-01T12:30:58.350Z,12.73
2018-12-01T12:33:29.805Z,9.93
2018-12-01T12:36:00.702Z,10.93
2018-12-01T12:38:32.468Z,7.53
2018-12-01T12:41:04.363Z,10.90
2018-12-01T12:43:35.128Z,8.93
2018-12-01T12:46:06.069Z,12.00
2018-12-01T12:48:36.874Z,14.97
2018-12-01T12:51:07.441Z,8.43
2018-12-01T12:53:38.243Z,9.77
2018-12-01T12:56:09.284Z,15.60
2018-12-01T12:58:40.036Z,25.70
2018-12-01T13:01:10.768Z,23.80
2018-12-01T13:03:41.443Z,13.53
2018-12-01T13:06:12.131Z,20.27
2018-12-01T13:08:42.621Z,26.07
2018-12-01T13:11:13.139Z,15.83
2018-12-01T13:13:44.035Z,13.00
2018-12-01T13:16:14.500Z,11.97
2018-12-01T13:18:45.128Z,9.90
2018-12-01T13:21:15.828Z,8.90
2018-12-01T13:23:46.879Z,9.87
2018-12-01T13:26:17.530Z,11.20
2018-12-01T13:28:48.356Z,10.40
2018-12-01T13:31:18.880Z,11.90
2018-12-01T13:33:49.543Z,12.03
2018-12-01T13:36:20.350Z,12.70
2018-12-01T13:38:50.863Z,13.80
2018-12-01T13:41:21.567Z,14.30
2018-12-01T13:43:52.278Z,14.77
2018-12-01T13:46:23.110Z,15.57
2018-12-01T13:48:54.043Z,25.30
2018-12-01T13:51:25.104Z,17.17
2018-12-01T13:53:55.806Z,16.37
2018-12-01T13:56:26.453Z,21.07
2018-12-01T13:58:57.037Z,19.50
2018-12-01T14:01:27.564Z,18.17
2018-12-01T14:03:58.072Z,18.10
2018-12-01T14:06:28.626Z,18.27
2018-12-01T14:08:59.453Z,14.27
2018-12-01T14:11:30.314Z,13.73
2018-12-01T14:14:00.927Z,13.57
2018-12-01T14:16:31.413Z,12.63
2018-12-01T14:19:02.008Z,14.53
2018-12-01T14:21:32.520Z,15.20
2018-12-01T14:24:03.372Z,14.97
2018-12-01T14:26:34.133Z,14.53
2018-12-01T14:29:04.890Z,17.63
2018-12-01T14:31:35.462Z,12.07
2018-12-01T14:34:06.460Z,13.23
2018-12-01T14:36:37.150Z,11.93
2018-12-01T14:39:09.327Z,11.80
2018-12-01T14:41:40.076Z,12.50
2018-12-01T14:44:10.671Z,11.77
2018-12-01T14:46:41.209Z,10.87
2018-12-01T14:49:11.797Z,11.30
2018-12-01T14:51:42.530Z,12.50
2018-12-01T14:54:13.407Z,11.03
2018-12-01T14:56:43.913Z,10.90
2018-12-01T14:59:14.511Z,10.30
2018-12-01T15:01:45.217Z,10.87
2018-12-01T15:04:15.963Z,12.07
2018-12-01T15:06:46.527Z,13.67
2018-12-01T15:09:17.115Z,11.37
2018-12-01T15:11:49.697Z,11.70
2018-12-01T15:14:26.010Z,12.17
2018-12-01T15:16:57.327Z,12.80
2018-12-01T15:19:27.899Z,11.73
2018-12-01T15:21:58.861Z,10.50
2018-12-01T15:24:29.585Z,11.47
2018-12-01T15:27:00.558Z,10.73
2018-12-01T15:29:31.226Z,11.03
2018-12-01T15:32:02.004Z,12.13
2018-12-01T15:34:32.547Z,10.97
2018-12-01T15:37:03.236Z,10.63
2018-12-01T15:39:34.120Z,11.00
2018-12-01T15:42:05.122Z,11.50
2018-12-01T15:44:35.929Z,15.00
2018-12-01T15:47:06.636Z,14.67
2018-12-01T15:49:43.374Z,14.10
2018-12-01T15:52:17.514Z,12.97
2018-12-01T15:54:48.209Z,11.27
2018-12-01T15:57:18.768Z,11.27
2018-12-01T15:59:49.728Z,11.67
2018-12-01T16:02:20.417Z,10.93
2018-12-01T16:04:51.376Z,11.53
2018-12-01T16:07:23.057Z,13.80
2018-12-01T16:09:53.783Z,15.70
2018-12-01T16:12:24.471Z,15.27
2018-12-01T16:14:55.171Z,16.50
2018-12-01T16:17:25.982Z,15.80
2018-12-01T16:19:56.644Z,14.40
2018-12-01T16:22:27.169Z,12.53
2018-12-01T16:24:57.999Z,12.57
2018-12-01T16:27:28.569Z,14.43
2018-12-01T16:29:59.181Z,15.27
2018-12-01T16:32:29.858Z,17.83
2018-12-01T16:35:00.654Z,17.30
2018-12-01T16:37:31.733Z,16.30
2018-12-01T16:40:02.776Z,15.73
2018-12-01T16:42:33.723Z,14.67
2018-12-01T16:45:04.408Z,14.33
2018-12-01T16:47:35.133Z,13.93
2018-12-01T16:50:07.784Z,14.17
2018-12-01T16:52:38.946Z,14.03
2018-12-01T16:55:12.283Z,14.70
2018-12-01T16:57:42.932Z,17.37
2018-12-01T17:00:17.371Z,15.43
2018-12-01T17:02:49.346Z,15.23
2018-12-01T17:05:20.899Z,14.43
2018-12-01T17:07:51.653Z,17.27
2018-12-01T17:10:23.048Z,14.00
2018-12-01T17:12:55.012Z,13.93
2018-12-01T17:15:25.620Z,13.67
2018-12-01T17:17:56.924Z,13.70
2018-12-01T17:20:27.655Z,14.60
2018-12-01T17:22:59.647Z,14.80
2018-12-01T17:25:30.395Z,14.83
2018-12-01T17:28:01.296Z,15.37
2018-12-01T17:30:31.881Z,16.37
2018-12-01T17:33:05.248Z,15.13
2018-12-01T17:35:38.114Z,14.20
2018-12-01T17:38:11.702Z,15.50
2018-12-01T17:40:53.142Z,15.03
2018-12-01T17:43:35.288Z,16.63
2018-12-01T17:46:06.255Z,17.90
2018-12-01T17:48:37.338Z,22.03
2018-12-01T17:51:10.233Z,20.57
2018-12-01T17:53:46.157Z,18.20
2018-12-01T17:56:19.591Z,17.33
2018-12-01T17:58:54.026Z,14.83
2018-12-01T18:01:28.187Z,14.77
2018-12-01T18:06:31.961Z,15.23
2018-12-01T18:09:07.340Z,14.40
2018-12-01T18:11:42.547Z,14.73
2018-12-01T18:14:16.547Z,18.77
2018-12-01T18:16:50.223Z,18.23
2018-12-01T18:19:23.377Z,20.73
2018-12-01T18:21:57.110Z,21.83
2018-12-01T18:27:00.091Z,21.13
2018-12-01T18:29:34.462Z,19.33
2018-12-01T18:32:08.947Z,17.50
2018-12-01T18:34:45.098Z,17.87
2018-12-01T18:37:19.558Z,16.80
2018-12-01T18:39:54.051Z,17.23
2018-12-01T18:42:31.163Z,19.97
2018-12-01T18:45:05.637Z,19.87
2018-12-01T18:47:39.878Z,19.57
2018-12-01T18:50:20.400Z,29.93
2018-12-01T18:55:23.963Z,34.20
2018-12-01T18:57:58.558Z,31.63
2018-12-01T19:00:41.248Z,24.53
2018-12-01T19:03:17.067Z,22.93
2018-12-01T19:05:51.642Z,21.30
2018-12-01T19:08:26.526Z,22.33
2018-12-01T19:11:01.912Z,23.33
2018-12-01T19:13:38.013Z,18.83
2018-12-01T19:16:14.421Z,18.30
2018-12-01T19:18:49.050Z,19.53
2018-12-01T19:21:24.245Z,17.80
2018-12-01T19:23:59.234Z,17.40
2018-12-01T19:26:34.657Z,16.73
2018-12-01T19:29:09.965Z,18.20
2018-12-01T19:31:44.320Z,24.50
2018-12-01T19:34:19.624Z,22.17
2018-12-01T19:36:55.214Z,18.43
2018-12-01T19:39:29.002Z,16.70
2018-12-01T19:42:03.391Z,14.57
2018-12-01T19:44:38.973Z,15.60
2018-12-01T19:47:14.402Z,15.80
2018-12-01T19:49:49.238Z,16.23
2018-12-01T19:52:25.628Z,17.63
2018-12-01T19:55:02.050Z,18.50
2018-12-01T19:57:37.561Z,17.23
2018-12-01T20:00:17.000Z,18.53
2018-12-01T20:02:53.510Z,19.20
2018-12-01T20:05:28.953Z,18.27
2018-12-01T20:08:03.448Z,17.67
2018-12-01T20:10:40.637Z,17.13
2018-12-01T20:13:22.097Z,17.53
2018-12-01T20:15:58.626Z,19.20
2018-12-01T20:18:34.421Z,19.00
2018-12-01T20:21:09.808Z,19.63
2018-12-01T20:23:45.553Z,18.03
2018-12-01T20:26:20.357Z,19.47
2018-12-01T20:28:54.761Z,18.97
2018-12-01T20:31:29.234Z,19.83
2018-12-01T20:34:04.698Z,19.77
2018-12-01T20:36:47.824Z,20.13
2018-12-01T20:39:25.146Z,19.20
2018-12-01T20:41:59.127Z,18.23
2018-12-01T20:44:33.179Z,18.57
2018-12-01T20:47:07.457Z,18.37
2018-12-01T20:49:38.767Z,17.77
2018-12-01T20:52:11.095Z,18.17
2018-12-01T20:54:46.257Z,18.23
2018-12-01T20:57:22.100Z,19.33
2018-12-01T20:59:54.074Z,20.60
2018-12-01T21:02:25.028Z,22.53
2018-12-01T21:04:56.508Z,22.57
2018-12-01T21:07:28.528Z,19.30
2018-12-01T21:10:00.907Z,18.17
2018-12-01T21:12:32.772Z,19.13
2018-12-01T21:15:04.204Z,20.03
2018-12-01T21:17:35.674Z,18.70
2018-12-01T21:20:13.140Z,18.90
2018-12-01T21:22:48.225Z,18.67
2018-12-01T21:25:22.176Z,18.43
2018-12-01T21:27:55.241Z,17.97
2018-12-01T21:30:29.492Z,18.47
2018-12-01T21:33:02.834Z,17.77
2018-12-01T21:35:35.465Z,19.03
2018-12-01T21:38:11.882Z,19.17
2018-12-01T21:40:44.686Z,18.73
2018-12-01T21:43:17.166Z,19.30
2018-12-01T21:45:52.352Z,19.37
2018-12-01T21:48:23.122Z,19.73
2018-12-01T21:50:53.700Z,19.67
2018-12-01T21:53:27.069Z,19.30
2018-12-01T21:55:57.576Z,19.63
2018-12-01T21:58:28.345Z,18.90
2018-12-01T22:01:01.057Z,17.73
2018-12-01T22:03:32.861Z,18.90
2018-12-01T22:06:04.844Z,20.57
2018-12-01T22:08:36.224Z,23.17
2018-12-01T22:11:07.561Z,24.33
2018-12-01T22:13:38.214Z,22.53
2018-12-01T22:16:09.946Z,20.20
2018-12-01T22:18:40.587Z,19.60
2018-12-01T22:21:11.400Z,20.00
2018-12-01T22:23:42.157Z,19.60
2018-12-01T22:26:12.705Z,20.00
2018-12-01T22:28:43.321Z,19.20
2018-12-01T22:31:13.897Z,19.60
2018-12-01T22:33:44.402Z,18.33
2018-12-01T22:36:14.992Z,19.23
2018-12-01T22:38:45.587Z,18.80
2018-12-01T22:41:15.996Z,18.97
2018-12-01T22:43:47.111Z,19.80
2018-12-01T22:46:17.618Z,20.40
2018-12-01T22:48:48.467Z,20.03
2018-12-01T22:51:19.273Z,20.37
2018-12-01T22:53:50.204Z,20.87
2018-12-01T22:56:20.825Z,20.50
2018-12-01T22:58:51.751Z,22.63
2018-12-01T23:01:22.586Z,24.10
2018-12-01T23:03:53.284Z,26.37
2018-12-01T23:06:23.773Z,25.83
2018-12-01T23:08:54.631Z,28.40
2018-12-01T23:11:25.183Z,26.50
2018-12-01T23:13:55.845Z,25.70
2018-12-01T23:16:26.532Z,24.27
2018-12-01T23:18:57.070Z,23.37
2018-12-01T23:21:28.099Z,22.00
2018-12-01T23:23:58.703Z,22.47
2018-12-01T23:26:29.379Z,22.83
2018-12-01T23:28:59.930Z,25.37
2018-12-01T23:31:30.623Z,26.57
2018-12-01T23:34:01.375Z,28.07
2018-12-01T23:36:32.044Z,27.20
2018-12-01T23:39:02.697Z,25.80
2018-12-01T23:41:33.584Z,25.73
2018-12-01T23:44:04.203Z,24.00
2018-12-01T23:46:34.825Z,26.20
2018-12-01T23:49:05.513Z,26.43
2018-12-01T23:51:36.143Z,26.90
2018-12-01T23:54:06.874Z,26.53
2018-12-01T23:56:37.349Z,25.83
2018-12-01T23:59:08.035Z,27.03
